Time;durP1;ratioP1;P1;durP2;ratioP2;P2;SDS_P1;SDS_P2;PMS_P1;PMS_P2;Temp;Humidity;BMP_temperature;BMP_pressure;BME280_temperature;BME280_humidity;BME280_pressure;Samples;Min_cycle;Max_cycle;Signal;HPM_P1;HPM_P2
2023/10/27 05:13:49;;;;;;;;;;;;;;;10.40;100.00;97190.78;4987565;28;19976;-87
2023/10/27 05:16:14;;;;;;;;;;;;;;;10.42;100.00;97180.88;4992640;28;20333;-86
2023/10/27 05:18:40;;;;;;;;;;;;;;;10.44;100.00;97178.97;4992716;28;19918;-86
2023/10/27 05:21:05;;;;;;;;;;;;;;;10.42;100.00;97195.00;4992512;28;20384;-87
2023/10/27 05:23:30;;;;;;;;;;;;;;;10.44;100.00;97197.50;4992546;28;20280;-86
2023/10/27 05:25:55;;;;;;;;;;;;;;;10.43;100.00;97207.22;4991246;28;19918;-86
2023/10/27 05:28:21;;;;;;;;;;;;;;;10.43;100.00;97227.59;4975009;28;19918;-86
2023/10/27 05:30:50;;;;;;;;;;;;;;;10.44;100.00;97232.75;4992758;28;19973;-85
2023/10/27 05:33:15;;;;;;;;;;;;;;;10.46;100.00;97229.97;4992479;28;20008;-87
2023/10/27 05:35:40;;;;;;;;;;;;;;;10.50;100.00;97240.19;5007915;28;19961;-85
2023/10/27 05:38:06;;;;;;;;;;;;;;;10.51;100.00;97246.31;4992455;28;19922;-86
2023/10/27 05:40:31;;;;;;;;;;;;;;;10.53;100.00;97253.19;4991143;28;20353;-87
2023/10/27 05:42:57;;;;;;;;;;;;;;;10.47;100.00;97260.78;4992138;28;20004;-87
2023/10/27 05:45:22;;;;;;;;;;;;;;;10.49;100.00;97256.19;4975599;28;20424;-87
2023/10/27 05:47:47;;;;;;;;;;;;;;;10.45;100.00;97266.22;5011344;28;19924;-85
2023/10/27 05:50:13;;;;;;;;;;;;;;;10.45;100.00;97279.44;4978536;28;19929;-86
2023/10/27 05:52:38;;;;;;;;;;;;;;;10.51;100.00;97292.19;4996075;28;20008;-86
2023/10/27 05:55:04;;;;;;;;;;;;;;;10.49;100.00;97291.44;4996160;28;19961;-84
2023/10/27 05:57:29;;;;;;;;;;;;;;;10.44;100.00;97311.34;4994772;28;20284;-86
2023/10/27 05:59:55;;;;;;;;;;;;;;;10.44;100.00;97314.00;4995887;28;19961;-86
2023/10/27 06:02:20;;;;;;;;;;;;;;;10.45;100.00;97327.09;4995983;28;19922;-85
2023/10/27 06:04:45;;;;;;;;;;;;;;;10.47;100.00;97329.63;4995811;28;19918;-88
2023/10/27 06:07:15;;;;;;;;;;;;;;;10.48;100.00;97332.16;4978420;28;19984;-96
2023/10/27 06:09:40;;;;;;;;;;;;;;;10.46;100.00;97342.00;4978562;28;19917;-85
2023/10/27 06:12:06;;;;;;;;;;;;;;;10.45;100.00;97342.97;4993952;28;20302;-85
2023/10/27 06:14:31;;;;;;;;;;;;;;;10.47;100.00;97346.34;4995608;28;20025;-83
2023/10/27 06:16:57;;;;;;;;;;;;;;;10.49;100.00;97351.50;4995423;28;19925;-87
2023/10/27 06:19:24;;;;;;;;;;;;;;;10.49;100.00;97354.16;4978041;28;19972;-86
2023/10/27 06:21:49;;;;;;;;;;;;;;;10.45;100.00;97361.50;4995921;28;20316;-84
2023/10/27 06:24:14;;;;;;;;;;;;;;;10.47;100.00;97372.81;4995240;28;19938;-85
2023/10/27 06:26:40;;;;;;;;;;;;;;;10.48;100.00;97384.22;4994066;28;20017;-85
2023/10/27 06:29:05;;;;;;;;;;;;;;;10.51;100.00;97384.84;4995287;28;19972;-85
2023/10/27 06:31:30;;;;;;;;;;;;;;;10.53;100.00;97392.66;4995727;28;19917;-86
2023/10/27 06:33:56;;;;;;;;;;;;;;;10.49;100.00;97401.81;4995536;28;19918;-86
2023/10/27 06:36:21;;;;;;;;;;;;;;;10.51;100.00;97402.53;4994481;28;19917;-84
2023/10/27 06:38:46;;;;;;;;;;;;;;;10.51;100.00;97407.81;4995248;28;19921;-87
2023/10/27 06:41:12;;;;;;;;;;;;;;;10.50;100.00;97407.00;4993796;28;20280;-90
2023/10/27 06:43:37;;;;;;;;;;;;;;;10.53;100.00;97416.50;4995170;28;20341;-85
2023/10/27 06:46:02;;;;;;;;;;;;;;;10.51;100.00;97423.69;4995173;28;19918;-84
2023/10/27 06:48:28;;;;;;;;;;;;;;;10.55;100.00;97427.81;4977586;28;19921;-89
2023/10/27 06:50:53;;;;;;;;;;;;;;;10.53;100.00;97430.56;4995110;28;20364;-89
2023/10/27 06:53:18;;;;;;;;;;;;;;;10.56;100.00;97429.47;4994908;28;19918;-88
2023/10/27 06:55:43;;;;;;;;;;;;;;;10.52;100.00;97436.00;4993704;28;19917;-85
2023/10/27 07:41:53;;;;;;;;;;;;;;;10.49;100.00;97473.31;5687431;23;19933;-84
2023/10/27 07:44:19;;;;;;;;;;;;;;;10.48;100.00;97475.13;5010604;28;19931;-92
2023/10/27 07:46:44;;;;;;;;;;;;;;;10.46;100.00;97470.88;5005581;28;19922;-85
2023/10/27 07:49:10;;;;;;;;;;;;;;;10.47;100.00;97478.72;5023477;28;20004;-84
2023/10/27 07:51:35;;;;;;;;;;;;;;;10.49;100.00;97487.38;5023452;28;19928;-86
2023/10/27 07:54:00;;;;;;;;;;;;;;;10.50;100.00;97483.78;5023078;28;19971;-85
2023/10/27 07:56:26;;;;;;;;;;;;;;;10.52;100.00;97492.44;5021909;28;19924;-87
2023/10/27 07:58:51;;;;;;;;;;;;;;;10.53;100.00;97483.53;5023651;28;20388;-87
2023/10/27 08:01:17;;;;;;;;;;;;;;;10.53;100.00;97483.53;5005195;28;19917;-87
2023/10/27 08:03:42;;;;;;;;;;;;;;;10.52;100.00;97495.06;5005179;28;19925;-87
2023/10/27 08:06:08;;;;;;;;;;;;;;;10.54;100.00;97489.66;5023232;28;19917;-85
2023/10/27 08:08:34;;;;;;;;;;;;;;;10.49;100.00;97490.00;5004947;28;19959;-86
2023/10/27 08:10:59;;;;;;;;;;;;;;;10.51;100.00;97501.34;5002914;28;19967;-87
2023/10/27 08:13:24;;;;;;;;;;;;;;;10.51;100.00;97489.91;5004991;28;19917;-87
2023/10/27 08:15:50;;;;;;;;;;;;;;;10.53;100.00;97488.00;5023347;28;19929;-88
2023/10/27 08:18:15;;;;;;;;;;;;;;;10.52;100.00;97500.38;5005281;28;20261;-88
2023/10/27 08:20:40;;;;;;;;;;;;;;;10.54;100.00;97500.25;5022640;28;20315;-89
2023/10/27 08:23:06;;;;;;;;;;;;;;;10.58;100.00;97511.44;5004841;28;19927;-85
2023/10/27 08:25:31;;;;;;;;;;;;;;;10.53;100.00;97514.47;5022963;28;20274;-88
2023/10/27 08:28:08;;;;;;;;;;;;;;;10.56;100.00;97519.50;5003052;28;19917;-85
2023/10/27 08:30:33;;;;;;;;;;;;;;;10.55;100.00;97523.13;5021859;28;19929;-85
2023/10/27 08:32:58;;;;;;;;;;;;;;;10.53;100.00;97523.25;5022771;28;19917;-86
2023/10/27 08:35:23;;;;;;;;;;;;;;;10.56;100.00;97524.78;5005025;28;20283;-84
2023/10/27 08:37:49;;;;;;;;;;;;;;;10.57;100.00;97523.00;5022498;28;20288;-84
2023/10/27 08:40:14;;;;;;;;;;;;;;;10.57;100.00;97529.13;5022195;28;19917;-88
2023/10/27 08:42:44;;;;;;;;;;;;;;;10.55;100.00;97528.41;5020253;28;19928;-88
2023/10/27 08:45:10;;;;;;;;;;;;;;;10.55;100.00;97533.72;5021366;28;19917;-88
2023/10/27 08:47:36;;;;;;;;;;;;;;;10.58;100.00;97533.47;5022669;28;19999;-87
2023/10/27 08:50:02;;;;;;;;;;;;;;;10.56;100.00;97545.16;5021149;28;19952;-87
2023/10/27 08:52:28;;;;;;;;;;;;;;;10.58;100.00;97540.56;5022217;28;20422;-87
2023/10/27 08:54:56;;;;;;;;;;;;;;;10.59;100.00;97545.72;5022624;28;20035;-89
2023/10/27 08:57:21;;;;;;;;;;;;;;;10.62;100.00;97545.50;5020540;28;20365;-88
2023/10/27 08:59:47;;;;;;;;;;;;;;;10.65;100.00;97539.97;5022037;28;19967;-85
2023/10/27 09:02:12;;;;;;;;;;;;;;;10.60;100.00;97543.94;5022428;28;19924;-84
2023/10/27 09:04:43;;;;;;;;;;;;;;;10.58;100.00;97541.41;5022225;28;19925;-85
2023/10/27 09:07:08;;;;;;;;;;;;;;;10.62;100.00;97555.25;5021922;28;19917;-84
2023/10/27 09:09:34;;;;;;;;;;;;;;;10.62;100.00;97547.31;5004953;28;19924;-86
2023/10/27 09:12:00;;;;;;;;;;;;;;;10.62;100.00;97549.97;5020425;28;20008;-88
2023/10/27 09:14:27;;;;;;;;;;;;;;;10.64;100.00;97548.03;5021846;28;20440;-84
2023/10/27 09:17:06;;;;;;;;;;;;;;;10.61;100.00;97543.84;5004749;28;19997;-84
2023/10/27 09:19:32;;;;;;;;;;;;;;;10.60;100.00;97558.03;5005211;28;20361;-84
2023/10/27 09:21:57;;;;;;;;;;;;;;;10.64;100.00;97558.63;5026357;28;20027;-85
2023/10/27 09:24:24;;;;;;;;;;;;;;;10.64;100.00;97546.25;5026035;28;20358;-87
2023/10/27 09:26:49;;;;;;;;;;;;;;;10.65;100.00;97561.16;5007101;28;20252;-85
2023/10/27 09:29:15;;;;;;;;;;;;;;;10.66;100.00;97572.59;5025020;28;19917;-85
2023/10/27 09:31:42;;;;;;;;;;;;;;;10.67;100.00;97575.13;5025669;28;19917;-84
2023/10/27 09:34:21;;;;;;;;;;;;;;;10.65;100.00;97574.38;5025750;28;20272;-83
2023/10/27 09:36:59;;;;;;;;;;;;;;;10.65;100.00;97577.03;5025483;28;20291;-83
2023/10/27 09:39:28;;;;;;;;;;;;;;;10.67;100.00;97577.78;5025817;28;20003;-86
2023/10/27 09:42:02;;;;;;;;;;;;;;;10.66;100.00;97578.72;5024447;28;19917;-84
2023/10/27 09:44:48;;;;;;;;;;;;;;;10.66;100.00;97584.03;5024564;28;20295;-89
2023/10/27 09:47:18;;;;;;;;;;;;;;;10.70;100.00;97584.63;5014843;28;19944;-85
2023/10/27 09:49:49;;;;;;;;;;;;;;;10.67;100.00;97580.44;5007980;28;19913;-84
2023/10/27 09:52:18;;;;;;;;;;;;;;;10.65;100.00;97590.28;5025901;28;20327;-85
2023/10/27 09:54:44;;;;;;;;;;;;;;;10.66;100.00;97591.16;5008027;28;19914;-86
2023/10/27 09:57:10;;;;;;;;;;;;;;;10.66;100.00;97591.97;5024034;28;20296;-84
2023/10/27 09:59:36;;;;;;;;;;;;;;;10.67;100.00;97596.31;5025301;28;20276;-84
2023/10/27 10:02:05;;;;;;;;;;;;;;;10.66;100.00;97607.88;5007914;28;19917;-83
2023/10/27 10:04:49;;;;;;;;;;;;;;;10.67;100.00;97604.25;5007000;28;19929;-83
2023/10/27 10:07:27;;;;;;;;;;;;;;;10.66;100.00;97602.56;5023878;28;19925;-84
2023/10/27 10:09:52;;;;;;;;;;;;;;;10.66;100.00;97604.38;5023453;28;20360;-85
2023/10/27 10:12:17;;;;;;;;;;;;;;;10.66;100.00;97615.81;5005104;28;19921;-84
2023/10/27 10:14:44;;;;;;;;;;;;;;;10.67;100.00;97612.22;5007405;28;20018;-85
2023/10/27 10:17:09;;;;;;;;;;;;;;;10.69;100.00;97612.94;5007114;28;19928;-84
2023/10/27 10:19:48;;;;;;;;;;;;;;;10.71;100.00;97608.34;5025114;28;20420;-83
2023/10/27 10:22:32;;;;;;;;;;;;;;;10.67;100.00;97606.91;5015284;28;19921;-88
2023/10/27 10:25:16;;;;;;;;;;;;;;;10.67;100.00;97601.63;5025050;28;19960;-84
2023/10/27 10:28:00;;;;;;;;;;;;;;;10.72;100.00;97603.88;5023795;28;19921;-84
2023/10/27 10:30:25;;;;;;;;;;;;;;;10.73;100.00;97600.28;5023260;28;19944;-86
2023/10/27 10:33:11;;;;;;;;;;;;;;;10.72;100.00;97604.75;5006807;28;19971;-85
2023/10/27 10:35:38;;;;;;;;;;;;;;;10.72;100.00;97618.00;5024567;28;19948;-85
2023/10/27 10:38:23;;;;;;;;;;;;;;;10.77;100.00;97622.06;5024519;28;19917;-88
2023/10/27 10:40:49;;;;;;;;;;;;;;;10.75;100.00;97613.41;5024074;28;20304;-88
2023/10/27 10:43:19;;;;;;;;;;;;;;;10.78;100.00;97613.16;5023851;28;19925;-85
2023/10/27 10:45:45;;;;;;;;;;;;;;;10.78;100.00;97613.16;5024012;28;19921;-84
2023/10/27 10:48:11;;;;;;;;;;;;;;;10.76;100.00;97607.16;5023584;28;19924;-86
2023/10/27 10:50:38;;;;;;;;;;;;;;;10.79;100.00;97604.28;5024258;28;19917;-85
2023/10/27 10:53:15;;;;;;;;;;;;;;;10.74;100.00;97604.63;5024714;28;19921;-88
2023/10/27 10:55:41;;;;;;;;;;;;;;;10.77;100.00;97612.34;5024053;28;19922;-85
2023/10/27 10:58:06;;;;;;;;;;;;;;;10.74;100.00;97607.28;5022986;28;19924;-86
2023/10/27 11:00:32;;;;;;;;;;;;;;;10.76;100.00;97612.44;5023643;28;19917;-85
2023/10/27 11:03:07;;;;;;;;;;;;;;;10.75;100.00;97605.47;5024158;28;20376;-88
2023/10/27 11:05:32;;;;;;;;;;;;;;;10.79;100.00;97606.91;5005663;28;19924;-86
2023/10/27 11:07:58;;;;;;;;;;;;;;;10.80;100.00;97606.78;5024102;28;20292;-86
2023/10/27 11:10:23;;;;;;;;;;;;;;;10.78;100.00;97608.69;5024261;28;19971;-84
2023/10/27 11:12:49;;;;;;;;;;;;;;;10.81;100.00;97618.22;5022781;28;20390;-84
2023/10/27 11:15:33;;;;;;;;;;;;;;;10.81;100.00;97603.16;5024348;28;19953;-89
2023/10/27 11:18:05;;;;;;;;;;;;;;;10.83;100.00;97621.59;5014755;28;19924;-88
2023/10/27 11:20:39;;;;;;;;;;;;;;;10.83;100.00;97624.25;5023609;28;19921;-84
2023/10/27 11:23:17;;;;;;;;;;;;;;;10.88;100.00;97616.78;5013183;28;19963;-89
2023/10/27 11:25:45;;;;;;;;;;;;;;;10.83;100.00;97632.19;5024044;28;19921;-91
2023/10/27 11:28:16;;;;;;;;;;;;;;;10.82;100.00;97618.09;5022657;28;20359;-87
2023/10/27 11:30:42;;;;;;;;;;;;;;;10.85;100.00;97611.72;5025136;28;19925;-87
2023/10/27 11:33:08;;;;;;;;;;;;;;;10.85;100.00;97617.00;5023589;28;19925;-86
2023/10/27 11:35:34;;;;;;;;;;;;;;;10.83;100.00;97618.94;5024029;28;19967;-84
2023/10/27 11:38:02;;;;;;;;;;;;;;;10.85;100.00;97615.22;5023989;28;19968;-83
2023/10/27 11:40:28;;;;;;;;;;;;;;;10.85;100.00;97620.53;5023321;28;19951;-86
2023/10/27 11:42:53;;;;;;;;;;;;;;;10.85;100.00;97620.53;5021828;28;19925;-84
2023/10/27 11:45:18;;;;;;;;;;;;;;;10.86;100.00;97611.59;5023585;28;19925;-89
2023/10/27 11:47:44;;;;;;;;;;;;;;;10.86;100.00;97606.28;5023598;28;19921;-85
2023/10/27 11:50:11;;;;;;;;;;;;;;;10.84;100.00;97602.09;5023426;28;20393;-92
2023/10/27 11:52:41;;;;;;;;;;;;;;;10.87;100.00;97615.09;5020969;28;20332;-86
2023/10/27 11:55:07;;;;;;;;;;;;;;;10.88;100.00;97616.78;5022201;28;19943;-86
2023/10/27 11:57:32;;;;;;;;;;;;;;;10.89;100.00;97623.75;5021623;28;20384;-85
2023/10/27 12:00:13;;;;;;;;;;;;;;;;;;;;;
2023/10/27 12:02:39;;;;;;;;;;;;;;;10.95;100.00;97614.50;5022432;28;19921;-87
2023/10/27 12:05:04;;;;;;;;;;;;;;;10.92;100.00;97620.03;5023358;28;20000;-90
2023/10/27 12:07:29;;;;;;;;;;;;;;;10.93;100.00;97619.91;5023787;28;19917;-84
2023/10/27 12:09:54;;;;;;;;;;;;;;;10.95;100.00;97610.03;5024713;28;19913;-85
2023/10/27 12:12:21;;;;;;;;;;;;;;;10.94;100.00;97607.50;5022561;28;20271;-85
2023/10/27 12:14:47;;;;;;;;;;;;;;;10.91;100.00;97613.88;5021806;28;19964;-84
2023/10/27 12:17:12;;;;;;;;;;;;;;;10.92;100.00;97620.03;5022696;28;19917;-85
2023/10/27 12:19:58;;;;;;;;;;;;;;;10.94;100.00;97615.47;5023278;28;20080;-92
2023/10/27 12:22:23;;;;;;;;;;;;;;;10.95;100.00;97612.69;5022468;28;20409;-86
2023/10/27 12:24:48;;;;;;;;;;;;;;;10.92;100.00;97610.28;5023690;28;19929;-85
2023/10/27 12:27:14;;;;;;;;;;;;;;;10.90;100.00;97605.09;5022531;28;20292;-89
2023/10/27 12:29:39;;;;;;;;;;;;;;;10.90;100.00;97604.25;5023241;28;19921;-92
2023/10/27 12:32:05;;;;;;;;;;;;;;;10.92;100.00;97612.94;5023186;28;19917;-87
2023/10/27 12:34:30;;;;;;;;;;;;;;;10.92;100.00;97620.03;5022330;28;19940;-86
2023/10/27 12:36:56;;;;;;;;;;;;;;;10.90;100.00;97620.16;5022869;28;19923;-85
2023/10/27 12:39:23;;;;;;;;;;;;;;;10.93;100.00;97619.91;5005119;28;20395;-86
2023/10/27 12:41:48;;;;;;;;;;;;;;;10.95;100.00;97625.94;5003602;28;19917;-87
2023/10/27 12:44:14;;;;;;;;;;;;;;;10.96;100.00;97622.34;5022086;28;19922;-86
2023/10/27 12:46:39;;;;;;;;;;;;;;;10.98;100.00;97632.81;5022332;28;19923;-84
2023/10/27 12:49:05;;;;;;;;;;;;;;;10.99;100.00;97630.03;5004556;28;20455;-89
2023/10/27 12:51:30;;;;;;;;;;;;;;;10.97;100.00;97634.59;5004826;28;19921;-88
2023/10/27 12:53:55;;;;;;;;;;;;;;;11.01;100.00;97636.06;5004277;28;19968;-84
2023/10/27 12:56:20;;;;;;;;;;;;;;;11.00;100.00;97631.72;5021506;28;19921;-85
2023/10/27 12:58:46;;;;;;;;;;;;;;;11.02;100.00;97635.06;5022254;28;19925;-87
2023/10/27 13:01:11;;;;;;;;;;;;;;;11.02;100.00;97627.13;5012388;28;20406;-85
2023/10/27 13:03:39;;;;;;;;;;;;;;;11.01;100.00;97637.84;5021801;28;19917;-87
2023/10/27 13:06:07;;;;;;;;;;;;;;;11.02;100.00;97631.59;5023532;28;20194;-86
2023/10/27 13:08:35;;;;;;;;;;;;;;;10.98;100.00;97628.34;5022551;28;19983;-91
2023/10/27 13:11:03;;;;;;;;;;;;;;;10.98;100.00;97640.75;5020562;28;19957;-85
2023/10/27 13:13:29;;;;;;;;;;;;;;;11.02;100.00;97635.06;5021902;28;20414;-86
2023/10/27 13:15:54;;;;;;;;;;;;;;;11.00;100.00;97637.00;5022003;28;19921;-88
2023/10/27 13:18:28;;;;;;;;;;;;;;;11.02;100.00;97636.88;5022736;28;19924;-89
2023/10/27 13:20:56;;;;;;;;;;;;;;;11.03;100.00;97641.25;5004472;28;19922;-91
2023/10/27 13:23:21;;;;;;;;;;;;;;;11.05;100.00;97642.78;5022499;28;20368;-84
2023/10/27 13:25:47;;;;;;;;;;;;;;;11.04;100.00;97645.56;5022039;28;19921;-84
2023/10/27 13:28:16;;;;;;;;;;;;;;;11.07;100.00;97654.13;5021439;28;19913;-85
2023/10/27 13:30:45;;;;;;;;;;;;;;;11.06;100.00;97648.94;5021671;28;19921;-86
2023/10/27 13:33:10;;;;;;;;;;;;;;;11.08;100.00;97655.78;5020724;28;19967;-88
2023/10/27 13:35:36;;;;;;;;;;;;;;;11.05;100.00;97661.34;5021565;28;19926;-86
2023/10/27 13:38:06;;;;;;;;;;;;;;;11.04;100.00;97654.38;5022150;28;20348;-85
2023/10/27 13:40:35;;;;;;;;;;;;;;;11.01;100.00;97656.38;5021842;28;19956;-87
2023/10/27 13:43:01;;;;;;;;;;;;;;;11.02;100.00;97664.22;5020366;28;19921;-85
2023/10/27 13:45:26;;;;;;;;;;;;;;;11.04;100.00;97661.44;5022110;28;19925;-85
2023/10/27 13:47:51;;;;;;;;;;;;;;;11.03;100.00;97659.78;5021624;28;19917;-88
2023/10/27 13:50:16;;;;;;;;;;;;;;;11.04;100.00;97670.25;5022156;28;19921;-87
2023/10/27 13:52:44;;;;;;;;;;;;;;;11.05;100.00;97666.63;5021503;28;19918;-87
2023/10/27 13:55:09;;;;;;;;;;;;;;;11.06;100.00;97652.44;5021935;28;19921;-87
2023/10/27 13:57:34;;;;;;;;;;;;;;;11.05;100.00;97658.69;5020046;28;20381;-86
2023/10/27 14:00:02;;;;;;;;;;;;;;;11.11;100.00;97661.84;5021413;28;19917;-88
2023/10/27 14:02:28;;;;;;;;;;;;;;;11.07;100.00;97664.72;5021835;28;19921;-86
2023/10/27 14:04:53;;;;;;;;;;;;;;;11.09;100.00;97670.75;5021503;28;19918;-84
2023/10/27 14:07:19;;;;;;;;;;;;;;;11.12;100.00;97668.81;5023436;28;19924;-83
2023/10/27 14:09:45;;;;;;;;;;;;;;;11.09;100.00;97669.91;5025392;28;19963;-85
2023/10/27 14:12:11;;;;;;;;;;;;;;;11.07;100.00;97679.75;5024069;28;20126;-87
2023/10/27 14:14:36;;;;;;;;;;;;;;;11.10;100.00;97679.53;5025078;28;19936;-87
2023/10/27 14:17:02;;;;;;;;;;;;;;;11.13;100.00;97684.59;5025137;28;20291;-84
2023/10/27 14:19:28;;;;;;;;;;;;;;;11.15;100.00;97685.31;5025411;28;19921;-86
2023/10/27 14:21:53;;;;;;;;;;;;;;;11.14;100.00;97682.81;5007259;28;19918;-86
2023/10/27 14:24:19;;;;;;;;;;;;;;;11.13;100.00;97691.69;5021569;28;19931;-86
2023/10/27 14:26:46;;;;;;;;;;;;;;;11.14;100.00;97688.09;5000537;28;19967;-86
2023/10/27 14:29:11;;;;;;;;;;;;;;;11.17;100.00;97682.53;5005180;28;19917;-83
2023/10/27 14:31:37;;;;;;;;;;;;;;;11.17;100.00;97687.84;5000766;28;19929;-87
2023/10/27 14:34:03;;;;;;;;;;;;;;;11.16;100.00;97683.50;5006752;28;19921;-83
2023/10/27 14:36:28;;;;;;;;;;;;;;;11.14;100.00;97682.81;5024604;28;19967;-84
2023/10/27 14:38:54;;;;;;;;;;;;;;;11.14;100.00;97690.75;5024382;28;20386;-83
2023/10/27 14:41:22;;;;;;;;;;;;;;;11.16;100.00;97676.41;5023069;28;19925;-84
2023/10/27 14:43:48;;;;;;;;;;;;;;;11.11;100.00;97683.88;5024851;28;19975;-85
2023/10/27 14:46:14;;;;;;;;;;;;;;;11.12;100.00;97684.72;5024684;28;19953;-83
2023/10/27 14:48:40;;;;;;;;;;;;;;;11.14;100.00;97688.09;5024321;28;19917;-85
2023/10/27 14:51:10;;;;;;;;;;;;;;;11.16;100.00;97691.47;5024283;28;19928;-86
2023/10/27 14:53:35;;;;;;;;;;;;;;;11.19;100.00;97693.88;5024133;28;19921;-87
2023/10/27 14:56:01;;;;;;;;;;;;;;;11.19;100.00;97693.88;5023086;28;19924;-85
2023/10/27 14:58:26;;;;;;;;;;;;;;;11.13;100.00;97691.69;5024197;28;19921;-84
2023/10/27 15:00:52;;;;;;;;;;;;;;;11.14;100.00;97694.25;5007002;28;19932;-85
2023/10/27 15:03:17;;;;;;;;;;;;;;;11.15;100.00;97697.72;5023998;28;20335;-84
2023/10/27 15:05:45;;;;;;;;;;;;;;;11.15;100.00;97700.38;5006518;28;19921;-94
2023/10/27 15:08:10;;;;;;;;;;;;;;;11.15;100.00;97703.03;5023064;28;19917;-86
2023/10/27 15:10:37;;;;;;;;;;;;;;;11.17;100.00;97698.44;5024041;28;19991;-87
2023/10/27 15:13:04;;;;;;;;;;;;;;;11.19;100.00;97701.84;5005250;28;19921;-83
2023/10/27 15:15:29;;;;;;;;;;;;;;;11.16;100.00;97704.72;5024236;28;19917;-86
2023/10/27 15:17:54;;;;;;;;;;;;;;;11.17;100.00;97698.44;5024184;28;19921;-83
2023/10/27 15:20:19;;;;;;;;;;;;;;;11.18;100.00;97697.47;5023714;28;19918;-85
2023/10/27 15:22:45;;;;;;;;;;;;;;;11.17;100.00;97701.09;5006112;28;19921;-85
2023/10/27 15:25:11;;;;;;;;;;;;;;;11.17;100.00;97701.09;5022439;28;19917;-84
2023/10/27 15:27:37;;;;;;;;;;;;;;;11.15;100.00;97695.91;5004842;28;20277;-84
2023/10/27 15:30:03;;;;;;;;;;;;;;;11.16;100.00;97696.78;5023773;28;19943;-84
2023/10/27 15:32:28;;;;;;;;;;;;;;;11.15;100.00;97692.41;5024085;28;19992;-90
2023/10/27 15:34:54;;;;;;;;;;;;;;;11.15;100.00;97692.41;5025140;28;19921;-87
2023/10/27 15:37:19;;;;;;;;;;;;;;;11.15;100.00;97693.25;5023593;28;20352;-87
2023/10/27 15:39:45;;;;;;;;;;;;;;;11.15;100.00;97695.91;5023572;28;19923;-87
2023/10/27 15:42:10;;;;;;;;;;;;;;;11.14;100.00;97690.75;5004201;28;19925;-89
2023/10/27 15:44:36;;;;;;;;;;;;;;;11.13;100.00;97692.53;5023909;28;19973;-85
2023/10/27 15:47:02;;;;;;;;;;;;;;;11.16;100.00;97692.31;5023821;28;19932;-86
2023/10/27 15:49:27;;;;;;;;;;;;;;;11.15;100.00;97684.47;5023631;28;19922;-88
2023/10/27 15:51:52;;;;;;;;;;;;;;;11.14;100.00;97685.44;5023820;28;19917;-86
2023/10/27 15:54:18;;;;;;;;;;;;;;;11.16;100.00;97679.06;5023349;28;19968;-88
2023/10/27 15:56:43;;;;;;;;;;;;;;;11.13;100.00;97683.75;5023206;28;19924;-89
2023/10/27 15:59:08;;;;;;;;;;;;;;;11.14;100.00;97677.50;5005308;28;19917;-84
2023/10/27 16:01:33;;;;;;;;;;;;;;;11.16;100.00;97678.22;5023758;28;19985;-85
2023/10/27 16:03:59;;;;;;;;;;;;;;;11.18;100.00;97676.28;5022971;28;20353;-86
2023/10/27 16:06:24;;;;;;;;;;;;;;;11.18;100.00;97674.47;5005375;28;20276;-88
2023/10/27 16:08:50;;;;;;;;;;;;;;;11.20;100.00;97682.28;5022941;28;19980;-87
2023/10/27 16:11:15;;;;;;;;;;;;;;;11.17;100.00;97680.75;5022060;28;20224;-86
2023/10/27 16:13:42;;;;;;;;;;;;;;;11.23;100.00;97668.78;5023038;28;19918;-87
2023/10/27 16:16:08;;;;;;;;;;;;;;;11.23;100.00;97672.31;5022459;28;20068;-85
2023/10/27 16:18:33;;;;;;;;;;;;;;;11.22;100.00;97678.56;5022906;28;20000;-86
2023/10/27 16:20:58;;;;;;;;;;;;;;;11.26;100.00;97687.97;5022927;28;20012;-84
2023/10/27 16:23:24;;;;;;;;;;;;;;;11.24;100.00;97689.06;5022274;28;19917;-86
2023/10/27 16:25:50;;;;;;;;;;;;;;;11.26;100.00;97690.63;5004946;28;19925;-90
2023/10/27 16:28:15;;;;;;;;;;;;;;;11.27;100.00;97689.66;5011205;28;19924;-88
2023/10/27 16:30:41;;;;;;;;;;;;;;;11.31;100.00;97692.88;5023909;28;19917;-95
2023/10/27 16:33:06;;;;;;;;;;;;;;;11.31;100.00;97695.53;5036008;23;21368;-88
2023/10/27 16:35:35;;;;;;;;;;;;;;;11.33;100.00;97698.06;4994890;28;20027;-85
2023/10/27 16:38:00;;;;;;;;;;;;;;;11.33;100.00;97704.25;5012503;28;19917;-87
2023/10/27 16:40:28;;;;;;;;;;;;;;;11.37;100.00;97710.13;4995029;28;19918;-86
2023/10/27 16:42:54;;;;;;;;;;;;;;;11.37;100.00;97704.84;4993437;28;19917;-86
2023/10/27 16:45:20;;;;;;;;;;;;;;;11.36;100.00;97706.66;5012354;28;19932;-86
2023/10/27 16:47:46;;;;;;;;;;;;;;;11.37;100.00;97705.66;5012559;28;19956;-86
2023/10/27 16:50:12;;;;;;;;;;;;;;;11.39;100.00;97711.72;5012375;28;19956;-88
2023/10/27 16:52:38;;;;;;;;;;;;;;;11.39;100.00;97703.75;5012399;28;19925;-87
2023/10/27 16:55:04;;;;;;;;;;;;;;;11.37;100.00;97713.63;5012294;28;20262;-84
2023/10/27 16:57:32;;;;;;;;;;;;;;;11.43;100.00;97715.78;5011106;28;19921;-85
2023/10/27 16:59:57;;;;;;;;;;;;;;;11.45;100.00;97718.31;5012200;28;19917;-83
2023/10/27 17:02:24;;;;;;;;;;;;;;;11.40;100.00;97718.69;5012275;28;19922;-85
2023/10/27 17:05:21;;;;;;;;;;;;;;;11.41;100.00;97723.03;5011693;28;19924;-93
2023/10/27 17:07:46;;;;;;;;;;;;;;;11.42;100.00;97714.13;4994937;28;19999;-88
2023/10/27 17:10:12;;;;;;;;;;;;;;;13.37;100.00;97719.34;5013368;28;19940;-83
2023/10/27 17:12:37;;;;;;;;;;;;;;;12.16;100.00;97718.81;5011250;28;20004;-87
2023/10/27 17:15:03;;;;;;;;;;;;;;;11.69;100.00;97715.50;5014204;28;19924;-88
2023/10/27 17:17:28;;;;;;;;;;;;;;;11.59;100.00;97719.88;4995611;28;19917;-86
2023/10/27 17:19:54;;;;;;;;;;;;;;;11.53;100.00;97720.38;5012673;28;20377;-90
2023/10/27 17:22:19;;;;;;;;;;;;;;;11.47;100.00;97718.19;4995056;28;20047;-90
2023/10/27 17:24:46;;;;;;;;;;;;;;;11.45;100.00;97719.19;5012224;28;19963;-87
2023/10/27 17:27:11;;;;;;;;;;;;;;;11.42;100.00;97718.56;5010864;28;19921;-88
2023/10/27 17:29:37;;;;;;;;;;;;;;;11.40;100.00;97720.50;4994019;28;19940;-87
2023/10/27 17:32:04;;;;;;;;;;;;;;;11.36;100.00;97711.94;5011879;28;19921;-89
2023/10/27 17:34:29;;;;;;;;;;;;;;;11.32;100.00;97718.44;5010403;28;19928;-88
2023/10/27 17:36:55;;;;;;;;;;;;;;;11.24;100.00;97720.88;5010133;28;19925;-87
2023/10/27 17:39:20;;;;;;;;;;;;;;;11.20;100.00;97712.31;5010353;28;19940;-89
2023/10/27 17:41:45;;;;;;;;;;;;;;;11.15;100.00;97717.09;4994429;28;20009;-83
2023/10/27 17:44:14;;;;;;;;;;;;;;;11.09;100.00;97715.78;5016033;28;19917;-84
2023/10/27 17:46:44;;;;;;;;;;;;;;;11.06;100.00;97717.84;5014932;28;19929;-88
2023/10/27 17:49:15;;;;;;;;;;;;;;;10.99;100.00;97711.31;5015554;28;19913;-91
2023/10/27 17:51:41;;;;;;;;;;;;;;;11.04;100.00;97725.91;4997677;28;20004;-88
2023/10/27 17:54:07;;;;;;;;;;;;;;;11.05;100.00;97719.63;5013691;28;20296;-85
2023/10/27 17:56:32;;;;;;;;;;;;;;;11.04;100.00;97731.22;4997019;28;19918;-86
2023/10/27 17:58:59;;;;;;;;;;;;;;;11.01;100.00;97726.16;5015157;28;20016;-86
2023/10/27 18:01:26;;;;;;;;;;;;;;;10.94;100.00;97724.94;4995412;28;20443;-86
2023/10/27 18:03:51;;;;;;;;;;;;;;;10.89;100.00;97722.63;5014711;28;19921;-88
2023/10/27 18:06:17;;;;;;;;;;;;;;;10.79;100.00;97723.47;4996626;28;20020;-87
2023/10/27 18:08:44;;;;;;;;;;;;;;;10.70;100.00;97717.88;5016994;28;20277;-89
2023/10/27 18:11:09;;;;;;;;;;;;;;;10.56;100.00;97715.44;4992808;28;19948;-82
2023/10/27 18:13:35;;;;;;;;;;;;;;;10.58;100.00;97715.31;4997690;28;19926;-86
2023/10/27 18:16:02;;;;;;;;;;;;;;;10.48;100.00;97723.13;5014385;28;19921;-88
2023/10/27 18:18:31;;;;;;;;;;;;;;;10.42;100.00;97721.81;4997162;28;19922;-86
2023/10/27 18:20:56;;;;;;;;;;;;;;;10.41;100.00;97721.91;4998080;28;20281;-86
2023/10/27 18:23:22;;;;;;;;;;;;;;;10.29;100.00;97724.50;5011621;28;19929;-89
2023/10/27 18:25:47;;;;;;;;;;;;;;;10.23;100.00;97734.66;5015402;28;20362;-86
2023/10/27 18:28:12;;;;;;;;;;;;;;;10.16;100.00;97726.34;4992028;28;19917;-86
2023/10/27 18:30:37;;;;;;;;;;;;;;;10.03;100.00;97728.22;5015611;28;20272;-88
2023/10/27 18:33:09;;;;;;;;;;;;;;;9.97;100.00;97725.06;5014832;28;20288;-87